Time;durP1;ratioP1;P1;durP2;ratioP2;P2;SDS_P1;SDS_P2;PMS_P1;PMS_P2;Temp;Humidity;BMP_temperature;BMP_pressure;BME280_temperature;BME280_humidity;BME280_pressure;Samples;Min_cycle;Max_cycle;Signal;HPM_P1;HPM_P2
2022/10/29 00:00:56;;;;;;;7.53;3.40;;;16.80;99.90;;;17.13;100.00;101569.19;5184473;28;20506;-69
2022/10/29 00:03:28;;;;;;;6.55;3.58;;;16.80;99.90;;;17.13;100.00;101566.56;5184847;28;20409;-69
2022/10/29 00:06:03;;;;;;;6.38;3.53;;;16.80;99.90;;;17.08;100.00;101568.22;5184857;28;20072;-69
2022/10/29 00:08:39;;;;;;;6.85;3.55;;;16.70;99.90;;;17.05;100.00;101570.78;5185010;28;20054;-69
2022/10/29 00:11:13;;;;;;;8.60;3.05;;;16.70;99.90;;;17.02;100.00;101561.09;5199658;28;20050;-69
2022/10/29 00:13:47;;;;;;;8.13;3.55;;;16.70;99.90;;;17.04;100.00;101563.75;5184684;28;20073;-69
2022/10/29 00:16:23;;;;;;;6.32;2.90;;;16.70;99.90;;;17.07;100.00;101567.31;5185100;28;20042;-69
2022/10/29 00:18:56;;;;;;;7.38;3.00;;;16.70;99.90;;;17.09;100.00;101567.38;5184779;28;20042;-69
2022/10/29 00:21:31;;;;;;;7.15;2.97;;;16.70;99.90;;;17.08;100.00;101571.75;5184274;28;20048;-69
2022/10/29 00:24:03;;;;;;;5.68;2.72;;;16.70;99.90;;;17.04;100.00;101559.38;5183309;28;20046;-69
2022/10/29 00:26:35;;;;;;;5.65;2.72;;;16.70;99.90;;;17.04;100.00;101563.75;5184555;28;20045;-69
2022/10/29 00:29:07;;;;;;;6.15;2.95;;;16.70;99.90;;;17.01;100.00;101563.69;5184552;28;20041;-69
2022/10/29 00:31:39;;;;;;;5.75;3.00;;;16.70;99.90;;;16.98;100.00;101559.25;5184001;28;20046;-69
2022/10/29 00:34:12;;;;;;;6.50;2.42;;;16.70;99.90;;;16.99;100.00;101561.00;5183281;28;20052;-69
2022/10/29 00:36:45;;;;;;;6.65;2.70;;;16.70;99.90;;;16.99;100.00;101555.75;5184232;28;20554;-69
2022/10/29 00:39:17;;;;;;;6.50;2.80;;;16.70;99.90;;;16.98;100.00;101561.88;5184173;28;20037;-69
2022/10/29 00:41:49;;;;;;;5.75;3.13;;;16.60;99.90;;;16.97;100.00;101572.38;5183954;28;20054;-69
2022/10/29 00:44:34;;;;;;;6.70;3.10;;;16.70;99.90;;;16.97;100.00;101567.13;5184680;28;20121;-69
2022/10/29 00:47:18;;;;;;;7.30;2.90;;;16.60;99.90;;;16.98;100.00;101563.63;5184091;28;20068;-69
2022/10/29 00:49:54;;;;;;;4.97;2.75;;;16.60;99.90;;;16.96;100.00;101576.78;5183507;28;20391;-69
2022/10/29 00:52:31;;;;;;;7.28;2.88;;;16.60;99.90;;;16.97;100.00;101573.28;5182856;28;20081;-69
2022/10/29 00:55:07;;;;;;;6.95;2.40;;;16.70;99.90;;;16.95;100.00;101575.00;5184297;28;20399;-69
2022/10/29 00:57:42;;;;;;;4.47;2.47;;;16.60;99.90;;;16.96;100.00;101574.13;5199320;28;20046;-69
2022/10/29 01:00:17;;;;;;;6.45;2.78;;;16.60;99.90;;;16.96;100.00;101579.41;5183574;28;20108;-69
2022/10/29 01:02:49;;;;;;;6.93;3.08;;;16.60;99.90;;;16.91;100.00;101578.41;5183626;28;20398;-69
2022/10/29 01:05:24;;;;;;;6.35;2.55;;;16.60;99.90;;;16.89;100.00;101574.88;5182579;28;20498;-69
2022/10/29 01:07:58;;;;;;;5.40;2.38;;;16.60;99.90;;;16.88;100.00;101573.06;5183885;28;20529;-69
2022/10/29 01:10:42;;;;;;;3.63;2.38;;;16.60;99.90;;;16.88;100.00;101573.06;5181277;28;20502;-69
2022/10/29 01:13:38;;;;;;;5.50;2.63;;;16.60;99.90;;;16.89;100.00;101569.59;5183518;28;20050;-69
2022/10/29 01:16:22;;;;;;;5.75;2.45;;;16.60;99.90;;;16.87;100.00;101560.75;5183639;28;20048;-69
2022/10/29 01:19:10;;;;;;;5.78;2.65;;;16.60;99.90;;;16.85;100.00;101569.50;5183554;28;20527;-69
2022/10/29 01:21:46;;;;;;;4.40;2.13;;;16.50;99.90;;;16.82;100.00;101562.38;5183377;28;20388;-69
2022/10/29 01:24:57;;;;;;;9.85;3.30;;;16.50;99.90;;;16.80;100.00;101559.72;5183554;28;20048;-69
2022/10/29 01:27:57;;;;;;;6.38;3.00;;;16.50;99.90;;;16.80;100.00;101561.47;5165457;28;20057;-69
2022/10/29 01:30:59;;;;;;;6.07;3.00;;;16.50;99.90;;;16.77;100.00;101556.16;5182935;28;20038;-69
2022/10/29 01:33:41;;;;;;;5.75;2.70;;;16.50;99.90;;;16.74;100.00;101566.63;5183754;28;20049;-69
2022/10/29 01:36:23;;;;;;;6.88;2.65;;;16.40;99.90;;;16.70;100.00;101572.69;5183602;28;20054;-69
2022/10/29 01:39:05;;;;;;;6.15;2.75;;;16.40;99.90;;;16.65;100.00;101567.28;5183574;28;20049;-69
2022/10/29 01:41:48;;;;;;;7.15;2.70;;;16.40;99.90;;;16.60;100.00;101568.91;5183337;28;20046;-69
2022/10/29 01:44:34;;;;;;;5.90;2.75;;;16.30;99.90;;;16.55;100.00;101568.78;5182389;28;20042;-69
2022/10/29 01:47:15;;;;;;;6.20;2.65;;;16.30;99.90;;;16.52;100.00;101566.13;5183162;28;20053;-69
2022/10/29 01:49:50;;;;;;;;;;;16.20;99.90;;;16.47;100.00;101559.84;5182067;28;20053;-69
2022/10/29 01:52:24;;;;;;;8.65;4.07;;;16.20;99.90;;;16.47;100.00;101553.69;5182180;28;19928;-69
2022/10/29 01:54:56;;;;;;;10.80;4.20;;;16.20;99.90;;;16.46;100.00;101544.91;5183284;28;20034;-69
2022/10/29 01:57:32;;;;;;;8.77;3.72;;;16.20;99.90;;;16.47;100.00;101544.06;5182423;28;20058;-69
2022/10/29 02:00:08;;;;;;;7.70;3.20;;;16.20;99.90;;;16.48;100.00;101539.69;5183121;28;20065;-69
2022/10/29 02:03:13;;;;;;;6.68;2.85;;;16.20;99.90;;;16.47;100.00;101530.91;5188553;28;20137;-69
2022/10/29 02:05:56;;;;;;;7.90;3.25;;;16.20;99.90;;;16.45;100.00;101529.09;5187887;28;20038;-69
2022/10/29 02:08:38;;;;;;;7.05;3.10;;;16.20;99.90;;;16.43;100.00;101526.44;5188293;28;20052;-69
2022/10/29 02:11:18;;;;;;;5.97;3.05;;;16.20;99.90;;;16.44;100.00;101522.94;5187021;28;20042;-69
2022/10/29 02:13:57;;;;;;;5.82;2.78;;;16.20;99.90;;;16.42;100.00;101519.38;5186858;28;20052;-69
2022/10/29 02:16:29;;;;;;;6.25;2.78;;;16.10;99.90;;;16.40;100.00;101517.56;5185840;28;20057;-69
2022/10/29 02:19:03;;;;;;;5.88;2.55;;;16.10;99.90;;;16.36;100.00;101513.97;5186978;28;20053;-69
2022/10/29 02:21:35;;;;;;;4.60;2.28;;;16.10;99.90;;;16.33;100.00;101507.78;5185244;28;20050;-69
2022/10/29 02:24:08;;;;;;;7.60;2.78;;;16.10;99.90;;;16.29;100.00;101512.06;5186919;28;20060;-69
2022/10/29 02:26:40;;;;;;;7.63;3.67;;;16.00;99.90;;;16.30;100.00;101500.72;5186985;28;20072;-69
2022/10/29 02:29:12;;;;;;;8.38;3.05;;;16.00;99.90;;;16.28;100.00;101502.41;5186932;28;20499;-69
2022/10/29 02:31:44;;;;;;;7.10;3.03;;;16.00;99.90;;;16.29;100.00;101502.41;5185088;28;20045;-69
2022/10/29 02:34:18;;;;;;;4.85;2.53;;;16.00;99.90;;;16.28;100.00;101500.66;5186574;28;20050;-69
2022/10/29 02:36:50;;;;;;;6.70;2.95;;;16.00;99.90;;;16.26;100.00;101506.75;5186925;28;20630;-69
2022/10/29 02:39:22;;;;;;;6.07;2.60;;;16.00;99.90;;;16.23;100.00;101510.16;5186713;28;20048;-69
2022/10/29 02:41:54;;;;;;;5.68;2.97;;;16.00;99.90;;;16.19;100.00;101512.72;5186009;28;20050;-69
2022/10/29 02:44:26;;;;;;;4.22;2.40;;;15.90;99.90;;;16.14;100.00;101515.22;5186513;28;20042;-69
2022/10/29 02:46:58;;;;;;;6.18;2.60;;;15.90;99.90;;;16.10;100.00;101516.00;5186470;28;20057;-69
2022/10/29 02:49:31;;;;;;;8.85;2.70;;;15.80;99.90;;;16.05;100.00;101517.66;5186233;28;20525;-69
2022/10/29 02:52:04;;;;;;;7.10;2.92;;;15.70;99.90;;;15.99;100.00;101518.41;5186029;28;20061;-69
2022/10/29 02:54:37;;;;;;;7.15;2.90;;;15.70;99.90;;;15.97;100.00;101509.59;5201630;28;20046;-69
2022/10/29 02:57:10;;;;;;;5.20;2.65;;;15.70;99.90;;;15.95;100.00;101511.28;5185019;28;20058;-69
2022/10/29 02:59:42;;;;;;;9.20;3.10;;;15.70;99.90;;;15.93;100.00;101502.47;5184634;28;20046;-69
2022/10/29 03:02:14;;;;;;;6.65;2.80;;;15.70;99.90;;;15.91;100.00;101504.19;5185976;28;20530;-69
2022/10/29 03:04:47;;;;;;;5.75;3.08;;;15.60;99.90;;;15.89;100.00;101505.88;5186028;28;20042;-69
2022/10/29 03:07:19;;;;;;;5.00;2.60;;;15.60;99.90;;;15.88;100.00;101503.19;5185910;28;20045;-69
2022/10/29 03:09:51;;;;;;;6.32;2.83;;;15.60;99.90;;;15.86;100.00;101505.81;5185725;28;20545;-69
2022/10/29 03:12:23;;;;;;;5.95;2.70;;;15.60;99.90;;;15.83;100.00;101494.31;5185600;28;20049;-69
2022/10/29 03:14:55;;;;;;;5.00;2.47;;;15.60;99.90;;;15.79;100.00;101500.38;5185913;28;20050;-69
2022/10/29 03:17:27;;;;;;;6.30;2.30;;;15.50;99.90;;;15.74;100.00;101494.97;5185693;28;20046;-69
2022/10/29 03:20:00;;;;;;;5.35;2.30;;;15.50;99.90;;;15.70;100.00;101487.84;5185337;28;20042;-69
2022/10/29 03:22:33;;;;;;;5.55;2.80;;;15.40;99.90;;;15.66;100.00;101492.16;5185671;28;20422;-69
2022/10/29 03:25:06;;;;;;;4.25;2.08;;;15.40;99.90;;;15.64;100.00;101487.72;5185825;28;20042;-69
2022/10/29 03:27:41;;;;;;;5.82;2.30;;;15.40;99.90;;;15.61;100.00;101485.88;5185680;28;20151;-69
2022/10/29 03:30:16;;;;;;;5.65;2.60;;;15.30;99.90;;;15.56;100.00;101469.09;5185187;28;20045;-69
2022/10/29 03:32:48;;;;;;;6.25;2.38;;;15.30;99.90;;;15.52;100.00;101467.25;5185521;28;20502;-69
2022/10/29 03:35:22;;;;;;;4.88;2.45;;;15.30;99.90;;;15.48;100.00;101465.38;5185493;28;20494;-69
2022/10/29 03:37:54;;;;;;;5.13;2.63;;;15.20;99.90;;;15.44;100.00;101469.66;5185528;28;20049;-69
2022/10/29 03:40:26;;;;;;;5.55;2.55;;;15.20;99.90;;;15.40;100.00;101473.09;5184730;28;20057;-69
2022/10/29 03:42:58;;;;;;;5.20;2.50;;;15.10;99.90;;;15.37;100.00;101472.97;5185084;28;20056;-69
2022/10/29 03:45:30;;;;;;;4.90;2.15;;;15.10;99.90;;;15.35;100.00;101474.69;5185319;28;20053;-69
2022/10/29 03:48:05;;;;;;;4.07;2.10;;;15.10;99.90;;;15.37;100.00;101470.34;5183969;28;20054;-69
2022/10/29 03:50:38;;;;;;;4.95;2.60;;;15.10;99.90;;;15.35;100.00;101461.56;5184222;28;20057;-69
2022/10/29 03:53:11;;;;;;;3.58;2.08;;;15.10;99.90;;;15.33;100.00;101465.88;5185227;28;20515;-69
2022/10/29 03:55:43;;;;;;;4.78;2.33;;;15.10;99.90;;;15.33;100.00;101473.78;5184849;28;20034;-69
2022/10/29 03:58:14;;;;;;;4.00;2.40;;;15.10;99.90;;;15.33;100.00;101479.03;5185164;28;20450;-69
2022/10/29 04:00:55;;;;;;;4.28;2.25;;;15.10;99.90;;;15.32;100.00;101468.44;5184764;28;20499;-69
2022/10/29 04:03:29;;;;;;;4.00;2.38;;;15.00;99.90;;;15.32;100.00;101469.38;5184818;28;20042;-69
2022/10/29 04:06:09;;;;;;;3.13;2.17;;;15.00;99.90;;;15.30;100.00;101468.41;5185125;28;20046;-69
2022/10/29 04:08:42;;;;;;;4.03;2.30;;;15.00;99.90;;;15.30;100.00;101476.31;5185133;28;20038;-69
2022/10/29 04:11:14;;;;;;;4.80;2.55;;;15.00;99.90;;;15.30;100.00;101475.41;5184659;28;20054;-69
2022/10/29 04:13:46;;;;;;;6.25;2.35;;;15.00;99.90;;;15.29;100.00;101476.28;5184670;28;20034;-69
2022/10/29 04:16:18;;;;;;;5.05;2.22;;;15.00;99.90;;;15.27;100.00;101478.88;5183494;28;20513;-69
2022/10/29 04:18:50;;;;;;;3.78;2.35;;;15.00;99.90;;;15.28;100.00;101477.13;5183439;28;20054;-69
2022/10/29 04:21:24;;;;;;;3.90;2.33;;;15.00;99.90;;;15.28;100.00;101477.13;5184301;28;20099;-69
2022/10/29 04:23:56;;;;;;;5.07;2.38;;;15.00;99.90;;;15.28;100.00;101487.63;5184007;28;20045;-69
2022/10/29 04:26:28;;;;;;;4.70;2.17;;;15.00;99.90;;;15.27;100.00;101489.38;5183244;28;20050;-69
2022/10/29 04:29:00;;;;;;;3.60;2.28;;;15.00;99.90;;;15.30;100.00;101491.16;5183270;28;20502;-69
2022/10/29 04:31:32;;;;;;;5.20;2.55;;;15.00;99.90;;;15.31;100.00;101474.56;5182731;28;20049;-69
2022/10/29 04:34:05;;;;;;;9.27;3.75;;;15.10;99.90;;;15.28;100.00;101462.25;5183084;28;20046;-69
2022/10/29 04:36:38;;;;;;;10.35;4.35;;;15.10;99.90;;;15.26;100.00;101458.69;5184244;28;20042;-69
2022/10/29 04:39:10;;;;;;;7.28;3.50;;;15.10;99.90;;;15.30;100.00;101449.16;5183232;28;20505;-69
2022/10/29 04:41:42;;;;;;;7.93;3.47;;;15.10;99.90;;;15.34;100.00;101424.75;5206551;23;20388;-87
2022/10/29 04:44:14;;;;;;;5.90;2.95;;;15.10;99.90;;;15.37;100.00;101402.06;5203915;28;20049;-87
2022/10/29 04:46:46;;;;;;;10.85;3.53;;;15.10;99.90;;;15.41;100.00;101414.44;5206506;28;20041;-87
2022/10/29 04:49:18;;;;;;;8.15;3.22;;;15.20;99.90;;;15.47;100.00;101438.22;5205495;28;20049;-86
2022/10/29 04:51:51;;;;;;;4.97;2.97;;;15.30;99.90;;;15.53;100.00;101452.38;5206248;28;20072;-88
2022/10/29 04:54:23;;;;;;;7.07;3.38;;;15.30;99.90;;;15.58;100.00;101445.47;5205406;28;20443;-87
2022/10/29 04:56:55;;;;;;;6.10;2.75;;;15.40;99.90;;;15.69;100.00;101447.56;5205324;28;20419;-87
2022/10/29 04:59:27;;;;;;;4.60;2.72;;;15.40;99.90;;;15.74;100.00;101442.41;5205007;28;20060;-87
2022/10/29 05:01:59;;;;;;;5.63;2.83;;;15.50;99.90;;;15.77;100.00;101437.22;5204942;28;20046;-87
2022/10/29 05:04:32;;;;;;;5.53;2.72;;;15.50;99.90;;;15.79;100.00;101430.28;5204874;28;20049;-87
2022/10/29 05:07:05;;;;;;;4.80;2.60;;;15.50;99.90;;;15.80;100.00;101437.31;5204968;28;20407;-87
2022/10/29 05:09:37;;;;;;;4.75;2.53;;;15.60;99.90;;;15.82;100.00;101425.06;5206314;28;20042;-87
2022/10/29 05:12:09;;;;;;;7.40;3.53;;;15.60;99.90;;;15.84;100.00;101402.31;5204523;28;20430;-87
2022/10/29 05:14:41;;;;;;;6.63;2.95;;;15.60;99.90;;;15.84;100.00;101402.31;5204854;28;20053;-87
2022/10/29 05:17:13;;;;;;;7.72;3.05;;;15.60;99.90;;;15.87;100.00;101407.66;5204610;28;20042;-87
2022/10/29 05:19:45;;;;;;;8.00;3.20;;;15.60;99.90;;;15.89;100.00;101413.84;5204884;28;20057;-87
2022/10/29 05:22:19;;;;;;;11.30;3.83;;;15.70;99.90;;;15.92;100.00;101406.03;5204822;28;20049;-87
2022/10/29 05:24:51;;;;;;;7.03;3.05;;;15.70;99.90;;;16.01;100.00;101406.22;5206067;28;20045;-88
2022/10/29 05:27:23;;;;;;;8.85;3.90;;;15.80;99.90;;;16.06;100.00;101401.09;5205917;28;20052;-88
2022/10/29 05:29:55;;;;;;;9.35;3.53;;;15.80;99.90;;;16.09;100.00;101387.09;5205605;28;20061;-88
2022/10/29 05:32:28;;;;;;;8.10;3.40;;;15.90;99.90;;;16.11;100.00;101385.41;5205331;28;20415;-87
2022/10/29 05:35:00;;;;;;;9.48;4.05;;;15.90;99.90;;;16.10;100.00;101394.13;5208021;28;20049;-86
2022/10/29 05:37:34;;;;;;;10.27;3.88;;;15.90;99.90;;;16.14;100.00;101402.13;5210753;28;20045;-86
2022/10/29 05:40:08;;;;;;;7.70;3.53;;;15.90;99.90;;;16.17;100.00;101410.09;5211706;28;20041;-87
2022/10/29 05:42:40;;;;;;;8.32;3.22;;;16.00;99.90;;;16.22;100.00;101418.06;5210115;28;20053;-86
2022/10/29 05:45:12;;;;;;;13.32;3.78;;;16.00;99.90;;;16.23;100.00;101406.69;5211194;28;20499;-87
2022/10/29 05:47:45;;;;;;;6.30;2.85;;;16.00;99.90;;;16.26;100.00;101412.03;5211143;28;20042;-87
2022/10/29 05:50:17;;;;;;;8.48;3.63;;;16.00;99.90;;;16.31;100.00;101415.66;5209299;28;20053;-87
2022/10/29 05:52:56;;;;;;;6.07;2.63;;;16.10;99.90;;;16.34;100.00;101417.47;5208732;28;20053;-87
2022/10/29 05:55:30;;;;;;;5.70;2.75;;;16.10;99.90;;;16.36;100.00;101424.50;5211160;28;20041;-86
2022/10/29 05:58:04;;;;;;;4.85;2.97;;;16.10;99.90;;;16.39;100.00;101424.59;5208855;28;20049;-86
2022/10/29 06:00:38;;;;;;;8.13;3.13;;;16.20;99.90;;;16.39;100.00;101416.69;5208611;28;20069;-86
2022/10/29 06:03:14;;;;;;;5.50;3.03;;;16.20;99.90;;;16.39;100.00;101418.44;5208556;28;20053;-87
2022/10/29 06:05:47;;;;;;;8.77;3.33;;;16.20;99.90;;;16.40;100.00;101421.09;5212302;28;20253;-84
2022/10/29 06:08:20;;;;;;;5.10;2.70;;;16.20;99.90;;;16.41;100.00;101422.88;5210909;28;20498;-84
2022/10/29 06:10:52;;;;;;;11.93;3.50;;;16.20;99.90;;;16.41;100.00;101414.97;5211028;28;20056;-83
2022/10/29 06:13:24;;;;;;;8.10;3.90;;;16.20;99.90;;;16.41;100.00;101422.88;5211888;28;20049;-83
2022/10/29 06:15:58;;;;;;;9.13;3.60;;;16.20;99.90;;;16.43;100.00;101421.19;5214496;28;20056;-83
2022/10/29 06:18:30;;;;;;;7.68;3.60;;;16.20;99.90;;;16.42;100.00;101416.75;5211355;28;20621;-84
2022/10/29 06:21:02;;;;;;;11.20;4.05;;;16.20;99.90;;;16.42;100.00;101419.38;5212216;28;20052;-84
2022/10/29 06:23:36;;;;;;;7.63;3.33;;;16.20;99.90;;;16.45;100.00;101419.47;5210678;28;20065;-82
2022/10/29 06:26:08;;;;;;;8.70;3.67;;;16.20;99.90;;;16.45;100.00;101416.84;5209225;28;20053;-82
2022/10/29 06:28:40;;;;;;;7.53;3.38;;;16.30;99.90;;;16.47;100.00;101416.84;5207733;28;20060;-83
2022/10/29 06:31:12;;;;;;;8.57;3.42;;;16.20;99.90;;;16.47;100.00;101409.84;5207400;28;20423;-84
2022/10/29 06:33:44;;;;;;;9.48;3.75;;;16.20;99.90;;;16.47;100.00;101407.22;5209240;28;20038;-84
2022/10/29 06:36:16;;;;;;;7.32;3.15;;;16.30;99.90;;;16.47;100.00;101401.94;5207286;28;20065;-84
2022/10/29 06:38:49;;;;;;;7.03;3.58;;;16.30;99.90;;;16.48;100.00;101390.56;5207758;28;20052;-83
2022/10/29 06:41:24;;;;;;;10.13;3.70;;;16.30;99.90;;;16.47;100.00;101388.78;5209735;28;20392;-81
2022/10/29 06:43:55;;;;;;;;;;;16.30;99.90;;;16.47;100.00;101385.28;5212540;28;20416;-82
2022/10/29 06:46:27;;;;;;;10.20;3.80;;;16.30;99.90;;;16.47;100.00;101380.91;5208129;28;19924;-83
2022/10/29 06:49:01;;;;;;;7.35;3.47;;;16.30;99.90;;;16.50;100.00;101393.25;5212150;28;20053;-84
2022/10/29 06:51:33;;;;;;;8.65;3.22;;;16.30;99.90;;;16.50;100.00;101395.88;5214355;28;20116;-84
2022/10/29 06:54:06;;;;;;;6.45;2.97;;;16.30;99.90;;;16.59;100.00;101408.31;5210498;28;20057;-83
2022/10/29 06:56:38;;;;;;;7.35;3.20;;;16.40;99.90;;;16.65;100.00;101400.56;5208707;28;20037;-83
2022/10/29 06:59:10;;;;;;;8.98;3.17;;;16.50;99.90;;;16.70;100.00;101420.00;5209362;28;20053;-84
2022/10/29 07:01:42;;;;;;;7.22;2.80;;;16.50;99.90;;;16.75;100.00;101419.19;5207995;28;20040;-83
2022/10/29 07:04:16;;;;;;;7.07;2.83;;;16.50;99.90;;;16.79;100.00;101426.31;5210167;28;20045;-84
2022/10/29 07:06:48;;;;;;;4.97;2.75;;;16.50;99.90;;;16.85;100.00;101446.63;5209770;28;20084;-83
2022/10/29 07:09:22;;;;;;;5.38;3.00;;;16.60;99.90;;;16.87;100.00;101437.00;5211450;28;20519;-84
2022/10/29 07:11:54;;;;;;;6.18;3.05;;;16.60;99.90;;;16.88;100.00;101420.31;5210021;28;20045;-83
2022/10/29 07:14:26;;;;;;;7.93;3.53;;;16.60;99.90;;;16.91;100.00;101415.13;5209671;28;20495;-84
2022/10/29 07:16:58;;;;;;;6.50;3.30;;;16.70;99.90;;;16.98;100.00;101405.59;5208793;28;20415;-81
2022/10/29 07:19:30;;;;;;;9.88;3.50;;;16.70;99.90;;;17.21;100.00;101420.06;5206795;28;20057;-82
2022/10/29 07:22:01;;;;;;;12.88;3.63;;;17.00;99.90;;;17.48;100.00;101435.47;5207182;28;20045;-80
2022/10/29 07:24:35;;;;;;;10.23;3.35;;;17.30;99.90;;;17.70;100.00;101433.19;5210496;28;20041;-85
2022/10/29 07:27:08;;;;;;;9.93;3.20;;;17.60;99.90;;;17.81;100.00;101437.78;5213050;28;20045;-83
2022/10/29 07:29:40;;;;;;;11.63;3.60;;;17.70;99.90;;;17.90;100.00;101432.66;5213479;28;20168;-83
2022/10/29 07:32:12;;;;;;;9.80;3.28;;;17.80;99.90;;;18.03;100.00;101439.00;5213271;28;20076;-82
2022/10/29 07:34:44;;;;;;;10.18;3.53;;;17.90;99.90;;;18.12;100.00;101452.31;5212174;28;20541;-82
2022/10/29 07:37:16;;;;;;;12.05;3.55;;;18.00;99.90;;;18.18;100.00;101457.66;5213923;28;20038;-82
2022/10/29 07:39:49;;;;;;;10.90;3.28;;;18.10;99.90;;;18.24;100.00;101456.00;5212266;28;20046;-81
2022/10/29 07:42:21;;;;;;;9.80;3.78;;;18.20;99.90;;;18.30;100.00;101464.00;5225800;28;20021;-83
2022/10/29 07:44:53;;;;;;;10.40;3.72;;;18.20;99.90;;;18.33;100.00;101462.31;5225040;28;20097;-82
2022/10/29 07:47:25;;;;;;;10.63;3.30;;;18.20;99.90;;;18.39;100.00;101467.66;5225384;28;20049;-82
2022/10/29 07:49:57;;;;;;;9.48;3.50;;;18.30;99.90;;;18.42;100.00;101462.41;5225661;28;20053;-83
2022/10/29 07:52:29;;;;;;;11.38;3.53;;;18.30;99.90;;;18.42;100.00;101464.16;5224240;28;20045;-82
2022/10/29 07:55:03;;;;;;;9.40;3.70;;;18.30;99.90;;;18.40;100.00;101468.53;5223716;28;20066;-85
2022/10/29 07:57:35;;;;;;;8.90;3.00;;;18.20;99.90;;;18.34;100.00;101465.81;5211118;28;20075;-84
2022/10/29 08:00:09;;;;;;;6.20;2.85;;;18.10;99.90;;;18.28;100.00;101460.47;5226901;28;20435;-84
2022/10/29 08:02:44;;;;;;;8.48;3.22;;;18.10;99.90;;;18.21;100.00;101454.22;5206516;28;20050;-84
2022/10/29 08:05:16;;;;;;;7.28;3.15;;;18.00;99.90;;;18.16;100.00;101453.25;5210067;28;20048;-84
2022/10/29 08:07:48;;;;;;;7.72;3.45;;;17.90;99.90;;;18.12;100.00;101448.78;5210133;28;20507;-83
2022/10/29 08:10:22;;;;;;;6.72;3.30;;;17.80;99.90;;;18.10;100.00;101447.88;5208852;28;20060;-85
2022/10/29 08:12:58;;;;;;;11.27;4.22;;;17.80;99.90;;;18.04;100.00;101431.97;5211073;28;20049;-85
2022/10/29 08:15:32;;;;;;;8.95;3.58;;;17.80;99.90;;;18.08;100.00;101442.59;5211318;28;20060;-85
2022/10/29 08:18:11;;;;;;;11.02;3.63;;;17.80;99.90;;;18.11;100.00;101428.53;5211161;28;20049;-85
2022/10/29 08:20:44;;;;;;;11.20;3.97;;;17.80;99.90;;;18.11;100.00;101426.78;5210597;28;20119;-85
2022/10/29 08:23:16;;;;;;;10.25;3.33;;;17.90;99.90;;;18.10;100.00;101437.31;5207289;28;20049;-86
2022/10/29 08:25:49;;;;;;;8.15;3.20;;;17.90;99.90;;;18.11;100.00;101439.09;5208811;28;20052;-85
2022/10/29 08:28:21;;;;;;;8.60;3.17;;;17.90;99.90;;;18.14;100.00;101434.75;5206683;28;20518;-86
2022/10/29 08:30:53;;;;;;;8.43;3.08;;;17.90;99.90;;;18.17;100.00;101434.78;5208170;28;20050;-85
2022/10/29 08:33:25;;;;;;;9.52;3.05;;;17.90;99.90;;;18.24;100.00;101419.94;5210575;28;20408;-86
2022/10/29 08:35:57;;;;;;;6.80;2.88;;;17.90;99.90;;;18.22;100.00;101410.22;5210552;28;20052;-84
2022/10/29 08:38:30;;;;;;;7.88;3.03;;;17.90;99.90;;;18.25;100.00;101405.88;5209174;28;20068;-83
2022/10/29 08:41:35;;;;;;;9.70;3.15;;;18.00;99.90;;;18.35;100.00;101406.88;5207102;28;20041;-85
2022/10/29 08:44:44;;;;;;;7.75;3.05;;;18.10;99.90;;;18.41;100.00;101410.50;5208257;28;20428;-84
2022/10/29 08:47:19;;;;;;;8.02;3.28;;;18.10;99.90;;;18.44;100.00;101417.53;5209330;28;20057;-85
2022/10/29 08:50:03;;;;;;;;;;;18.20;99.90;;;18.49;100.00;101414.97;5209338;28;20053;-84
2022/10/29 08:52:38;;;;;;;6.30;2.60;;;18.20;99.90;;;18.49;100.00;101407.94;5207921;28;19924;-84
2022/10/29 08:55:17;;;;;;;11.00;3.50;;;18.20;99.90;;;18.42;100.00;101414.00;5208106;28;20057;-84
2022/10/29 08:57:55;;;;;;;9.35;3.45;;;18.20;99.90;;;18.37;100.00;101415.69;5208093;28;20526;-83
2022/10/29 09:00:35;;;;;;;7.60;3.30;;;18.20;99.90;;;18.39;100.00;101412.22;5208117;28;20511;-83
2022/10/29 09:03:12;;;;;;;6.15;3.10;;;18.20;99.90;;;18.43;100.00;101418.41;5208718;28;20112;-82
2022/10/29 09:05:54;;;;;;;8.50;3.08;;;18.20;99.90;;;18.46;100.00;101410.56;5205075;28;20116;-83
2022/10/29 09:08:44;;;;;;;9.55;3.03;;;18.20;99.90;;;18.50;100.00;101401.78;5219248;28;20046;-83
2022/10/29 09:11:52;;;;;;;8.32;3.03;;;18.20;99.90;;;18.64;100.00;101401.94;5198399;28;20121;-79
2022/10/29 09:14:44;;;;;;;10.95;3.20;;;18.30;99.90;;;18.75;100.00;101404.75;5199085;28;20044;-79
2022/10/29 09:17:28;;;;;;;8.65;2.92;;;18.40;99.90;;;18.85;100.00;101404.00;5198207;28;20033;-80
2022/10/29 09:20:22;;;;;;;10.35;2.95;;;18.50;99.90;;;18.94;100.00;101404.94;5197575;28;20045;-79
2022/10/29 09:23:02;;;;;;;;;;;18.60;99.90;;;19.05;100.00;101402.44;5200840;28;20133;-79
2022/10/29 09:25:43;;;;;;;6.80;2.45;;;18.80;99.90;;;19.30;100.00;101403.53;5204460;28;20387;-78
2022/10/29 09:28:28;;;;;;;9.68;3.40;;;18.90;99.90;;;19.55;100.00;101407.25;5193928;28;20038;-79
2022/10/29 09:31:11;;;;;;;7.90;3.00;;;19.20;99.90;;;19.74;100.00;101409.19;5203849;28;20396;-79
2022/10/29 09:33:45;;;;;;;15.25;3.85;;;19.30;99.90;;;19.82;100.00;101400.41;5205349;28;20519;-86
2022/10/29 09:36:20;;;;;;;13.68;3.47;;;19.40;99.90;;;19.82;100.00;101409.22;5205611;28;20045;-86
2022/10/29 09:38:59;;;;;;;8.50;3.08;;;19.50;99.90;;;19.82;100.00;101408.34;5222323;28;20044;-94
2022/10/29 09:41:33;;;;;;;8.52;2.67;;;19.50;99.90;;;19.81;100.00;101412.75;5246972;28;20153;-90
2022/10/29 09:44:16;;;;;;;7.55;2.70;;;19.40;99.90;;;19.79;100.00;101412.75;5230288;28;20036;-91
2022/10/29 09:47:04;;;;;;;11.02;3.45;;;19.40;99.90;;;19.76;100.00;101404.81;5215564;28;20054;-89
2022/10/29 09:49:56;;;;;;;7.82;2.63;;;19.40;99.90;;;19.75;100.00;101397.72;5202598;28;20050;-89
2022/10/29 09:52:32;;;;;;;8.20;2.78;;;19.40;99.90;;;19.74;100.00;101397.72;5201172;28;20069;-87
2022/10/29 09:55:07;;;;;;;10.43;4.15;;;19.40;99.90;;;19.67;100.00;101390.63;5200826;28;20050;-88
2022/10/29 09:57:40;;;;;;;10.00;3.17;;;19.40;99.90;;;19.70;100.00;101395.97;5184457;28;20061;-88
2022/10/29 10:00:22;;;;;;;9.07;2.80;;;19.40;99.90;;;19.72;100.00;101387.16;5203702;28;20085;-89
2022/10/29 10:03:04;;;;;;;9.27;2.92;;;19.40;99.90;;;19.81;100.00;101388.94;5205025;28;20069;-87
2022/10/29 10:05:56;;;;;;;7.13;2.90;;;19.40;99.90;;;19.88;100.00;101390.75;5206425;28;20049;-88
2022/10/29 10:08:30;;;;;;;8.50;2.78;;;19.40;99.90;;;19.94;100.00;101387.28;5205095;28;20053;-88
2022/10/29 10:11:10;;;;;;;10.98;3.00;;;19.50;99.90;;;20.03;100.00;101389.97;5204863;28;20049;-87
2022/10/29 10:13:53;;;;;;;9.82;3.15;;;19.60;99.90;;;20.00;100.00;101376.72;5205806;28;20045;-89
2022/10/29 10:16:28;;;;;;;11.43;3.13;;;19.60;99.90;;;20.08;100.00;101390.88;5205062;28;20072;-90
2022/10/29 10:19:02;;;;;;;5.78;2.70;;;19.60;99.90;;;20.17;100.00;101390.06;5204899;28;20060;-89
2022/10/29 10:21:34;;;;;;;7.72;2.42;;;19.70;99.90;;;20.27;100.00;101392.72;5206785;28;20056;-89
2022/10/29 10:24:30;;;;;;;10.35;3.28;;;19.80;99.90;;;20.28;100.00;101391.88;5210264;28;20041;-89
2022/10/29 10:27:24;;;;;;;7.70;3.00;;;19.90;99.90;;;20.45;100.00;101399.91;5208123;28;20099;-90
2022/10/29 10:30:14;;;;;;;6.45;2.65;;;19.90;99.90;;;20.62;100.00;101393.81;5208796;28;20069;-91
2022/10/29 10:32:46;;;;;;;6.90;2.55;;;20.10;99.90;;;20.75;100.00;101393.84;5208811;28;20045;-88
2022/10/29 10:35:30;;;;;;;12.68;3.67;;;20.20;99.90;;;20.86;100.00;101391.19;5208832;28;20053;-91
2022/10/29 10:38:08;;;;;;;9.60;3.00;;;20.30;99.90;;;20.94;100.00;101391.22;5207768;28;20052;-91
2022/10/29 10:40:42;;;;;;;7.13;2.40;;;20.40;99.90;;;20.99;100.00;101385.03;5207883;28;20046;-91